sensor_id;sensor_type;location;lat;lon;timestamp;temperature;humidity
45785;DHT22;31489;51.404;5.474;2022-10-22T00:02:03;17.10;70.10
45785;DHT22;31489;51.404;5.474;2022-10-22T00:04:31;17.10;70.10
45785;DHT22;31489;51.404;5.474;2022-10-22T00:06:57;17.00;70.10
45785;DHT22;31489;51.404;5.474;2022-10-22T00:09:22;17.00;70.10
45785;DHT22;31489;51.404;5.474;2022-10-22T00:11:48;17.00;70.20
45785;DHT22;31489;51.404;5.474;2022-10-22T00:14:14;16.90;70.20
45785;DHT22;31489;51.404;5.474;2022-10-22T00:16:40;17.00;70.30
45785;DHT22;31489;51.404;5.474;2022-10-22T00:19:06;16.90;70.30
45785;DHT22;31489;51.404;5.474;2022-10-22T00:21:36;16.90;70.30
45785;DHT22;31489;51.404;5.474;2022-10-22T00:24:01;16.80;70.30
45785;DHT22;31489;51.404;5.474;2022-10-22T00:26:27;16.80;70.40
45785;DHT22;31489;51.404;5.474;2022-10-22T00:28:53;16.90;70.70
45785;DHT22;31489;51.404;5.474;2022-10-22T00:31:19;16.80;70.70
45785;DHT22;31489;51.404;5.474;2022-10-22T00:33:46;16.80;70.80
45785;DHT22;31489;51.404;5.474;2022-10-22T00:36:12;16.80;70.90
45785;DHT22;31489;51.404;5.474;2022-10-22T00:38:38;16.80;71.00
45785;DHT22;31489;51.404;5.474;2022-10-22T00:41:04;16.80;71.00
45785;DHT22;31489;51.404;5.474;2022-10-22T00:43:30;16.80;71.00
45785;DHT22;31489;51.404;5.474;2022-10-22T00:45:55;16.80;71.00
45785;DHT22;31489;51.404;5.474;2022-10-22T00:48:24;16.80;71.00
45785;DHT22;31489;51.404;5.474;2022-10-22T00:53:34;16.70;70.90
45785;DHT22;31489;51.404;5.474;2022-10-22T00:56:01;16.80;71.20
45785;DHT22;31489;51.404;5.474;2022-10-22T00:58:29;16.70;71.30
45785;DHT22;31489;51.404;5.474;2022-10-22T01:00:56;16.70;71.40
45785;DHT22;31489;51.404;5.474;2022-10-22T01:03:22;16.80;71.50
45785;DHT22;31489;51.404;5.474;2022-10-22T01:05:59;16.70;71.50
45785;DHT22;31489;51.404;5.474;2022-10-22T01:08:48;16.70;72.50
45785;DHT22;31489;51.404;5.474;2022-10-22T01:17:11;16.70;71.80
45785;DHT22;31489;51.404;5.474;2022-10-22T01:20:00;16.70;71.80
45785;DHT22;31489;51.404;5.474;2022-10-22T01:22:35;16.70;71.60
45785;DHT22;31489;51.404;5.474;2022-10-22T01:30:43;16.70;71.90
45785;DHT22;31489;51.404;5.474;2022-10-22T01:33:11;16.70;71.60
45785;DHT22;31489;51.404;5.474;2022-10-22T01:35:40;16.70;71.60
45785;DHT22;31489;51.404;5.474;2022-10-22T01:38:10;16.70;71.60
45785;DHT22;31489;51.404;5.474;2022-10-22T01:40:36;16.70;71.50
45785;DHT22;31489;51.404;5.474;2022-10-22T01:43:04;16.60;71.50
45785;DHT22;31489;51.404;5.474;2022-10-22T01:45:39;16.70;71.60
45785;DHT22;31489;51.404;5.474;2022-10-22T01:53:35;16.60;72.10
45785;DHT22;31489;51.404;5.474;2022-10-22T01:56:44;16.60;72.20
45785;DHT22;31489;51.404;5.474;2022-10-22T02:02:32;16.60;72.40
45785;DHT22;31489;51.404;5.474;2022-10-22T02:07:44;16.60;72.10
45785;DHT22;31489;51.404;5.474;2022-10-22T02:10:12;16.60;72.30
45785;DHT22;31489;51.404;5.474;2022-10-22T02:12:39;16.60;72.00
45785;DHT22;31489;51.404;5.474;2022-10-22T02:15:07;16.50;72.10
45785;DHT22;31489;51.404;5.474;2022-10-22T02:17:34;16.50;72.00
45785;DHT22;31489;51.404;5.474;2022-10-22T02:20:15;16.50;72.10
45785;DHT22;31489;51.404;5.474;2022-10-22T02:22:43;16.50;72.30
45785;DHT22;31489;51.404;5.474;2022-10-22T02:25:09;16.50;72.10
45785;DHT22;31489;51.404;5.474;2022-10-22T02:27:44;16.50;72.10
45785;DHT22;31489;51.404;5.474;2022-10-22T02:30:14;16.50;72.20
45785;DHT22;31489;51.404;5.474;2022-10-22T02:32:54;16.40;72.20
45785;DHT22;31489;51.404;5.474;2022-10-22T02:35:23;16.40;72.30
45785;DHT22;31489;51.404;5.474;2022-10-22T02:37:51;16.50;72.20
45785;DHT22;31489;51.404;5.474;2022-10-22T02:40:17;16.40;72.10
45785;DHT22;31489;51.404;5.474;2022-10-22T02:42:46;16.40;72.10
45785;DHT22;31489;51.404;5.474;2022-10-22T02:45:13;16.40;72.00
45785;DHT22;31489;51.404;5.474;2022-10-22T02:47:39;16.40;71.90
45785;DHT22;31489;51.404;5.474;2022-10-22T02:50:05;16.40;71.90
45785;DHT22;31489;51.404;5.474;2022-10-22T02:52:30;16.40;71.90
45785;DHT22;31489;51.404;5.474;2022-10-22T02:54:56;16.40;71.90
45785;DHT22;31489;51.404;5.474;2022-10-22T02:57:22;16.30;71.70
45785;DHT22;31489;51.404;5.474;2022-10-22T02:59:47;16.30;71.70
45785;DHT22;31489;51.404;5.474;2022-10-22T03:02:13;16.30;71.60
45785;DHT22;31489;51.404;5.474;2022-10-22T03:04:38;16.20;71.50
45785;DHT22;31489;51.404;5.474;2022-10-22T03:07:04;16.20;71.50
45785;DHT22;31489;51.404;5.474;2022-10-22T03:09:29;16.20;71.50
45785;DHT22;31489;51.404;5.474;2022-10-22T03:11:55;16.20;71.70
45785;DHT22;31489;51.404;5.474;2022-10-22T03:14:20;16.20;71.80
45785;DHT22;31489;51.404;5.474;2022-10-22T03:16:46;16.20;71.90
45785;DHT22;31489;51.404;5.474;2022-10-22T03:19:11;16.10;71.90
45785;DHT22;31489;51.404;5.474;2022-10-22T03:21:50;16.20;72.00
45785;DHT22;31489;51.404;5.474;2022-10-22T03:24:27;16.20;72.10
45785;DHT22;31489;51.404;5.474;2022-10-22T03:26:54;16.10;72.20
45785;DHT22;31489;51.404;5.474;2022-10-22T03:29:21;16.10;72.60
45785;DHT22;31489;51.404;5.474;2022-10-22T03:31:47;16.10;72.50
45785;DHT22;31489;51.404;5.474;2022-10-22T03:34:13;16.10;72.30
45785;DHT22;31489;51.404;5.474;2022-10-22T03:36:40;16.10;72.50
45785;DHT22;31489;51.404;5.474;2022-10-22T03:39:06;16.10;73.40
45785;DHT22;31489;51.404;5.474;2022-10-22T03:41:32;16.10;73.70
45785;DHT22;31489;51.404;5.474;2022-10-22T03:43:59;16.10;73.80
45785;DHT22;31489;51.404;5.474;2022-10-22T03:46:26;16.10;73.90
45785;DHT22;31489;51.404;5.474;2022-10-22T03:48:51;16.10;74.50
45785;DHT22;31489;51.404;5.474;2022-10-22T03:51:17;16.10;75.10
45785;DHT22;31489;51.404;5.474;2022-10-22T03:53:42;16.20;75.10
45785;DHT22;31489;51.404;5.474;2022-10-22T03:56:09;16.20;75.20
45785;DHT22;31489;51.404;5.474;2022-10-22T03:58:37;16.20;76.00
45785;DHT22;31489;51.404;5.474;2022-10-22T04:01:07;16.20;75.80
45785;DHT22;31489;51.404;5.474;2022-10-22T04:03:33;16.20;76.50
45785;DHT22;31489;51.404;5.474;2022-10-22T04:06:10;16.30;77.00
45785;DHT22;31489;51.404;5.474;2022-10-22T04:08:38;16.30;77.60
45785;DHT22;31489;51.404;5.474;2022-10-22T04:11:04;16.30;77.70
45785;DHT22;31489;51.404;5.474;2022-10-22T04:13:30;16.40;77.30
45785;DHT22;31489;51.404;5.474;2022-10-22T04:16:04;16.40;77.00
45785;DHT22;31489;51.404;5.474;2022-10-22T04:18:30;16.40;77.40
45785;DHT22;31489;51.404;5.474;2022-10-22T04:20:56;16.40;77.40
45785;DHT22;31489;51.404;5.474;2022-10-22T04:23:21;16.50;78.10
45785;DHT22;31489;51.404;5.474;2022-10-22T04:25:47;16.50;77.40
45785;DHT22;31489;51.404;5.474;2022-10-22T04:28:12;16.50;77.40
45785;DHT22;31489;51.404;5.474;2022-10-22T04:30:38;16.50;77.60
45785;DHT22;31489;51.404;5.474;2022-10-22T04:33:03;16.50;77.40
45785;DHT22;31489;51.404;5.474;2022-10-22T04:35:29;16.50;77.30
45785;DHT22;31489;51.404;5.474;2022-10-22T04:37:54;16.50;77.50
45785;DHT22;31489;51.404;5.474;2022-10-22T04:40:20;16.60;77.70
45785;DHT22;31489;51.404;5.474;2022-10-22T04:42:46;16.60;77.80
45785;DHT22;31489;51.404;5.474;2022-10-22T04:45:11;16.60;77.90
45785;DHT22;31489;51.404;5.474;2022-10-22T04:47:37;16.60;77.60
45785;DHT22;31489;51.404;5.474;2022-10-22T04:50:03;16.60;77.90
45785;DHT22;31489;51.404;5.474;2022-10-22T04:52:30;16.70;77.90
45785;DHT22;31489;51.404;5.474;2022-10-22T04:54:55;16.70;78.00
45785;DHT22;31489;51.404;5.474;2022-10-22T04:57:21;16.70;78.10
45785;DHT22;31489;51.404;5.474;2022-10-22T04:59:46;16.60;78.20
45785;DHT22;31489;51.404;5.474;2022-10-22T05:02:12;16.70;78.20
45785;DHT22;31489;51.404;5.474;2022-10-22T05:04:37;16.70;78.30
45785;DHT22;31489;51.404;5.474;2022-10-22T05:07:03;16.70;78.30
45785;DHT22;31489;51.404;5.474;2022-10-22T05:09:28;16.70;78.40
45785;DHT22;31489;51.404;5.474;2022-10-22T05:11:54;16.70;78.40
45785;DHT22;31489;51.404;5.474;2022-10-22T05:14:22;16.70;78.50
45785;DHT22;31489;51.404;5.474;2022-10-22T05:16:48;16.70;78.70
45785;DHT22;31489;51.404;5.474;2022-10-22T05:19:20;16.70;78.60
45785;DHT22;31489;51.404;5.474;2022-10-22T05:21:48;16.70;79.00
45785;DHT22;31489;51.404;5.474;2022-10-22T05:24:14;16.80;78.70
45785;DHT22;31489;51.404;5.474;2022-10-22T05:26:40;16.80;78.70
45785;DHT22;31489;51.404;5.474;2022-10-22T05:29:06;16.80;78.90
45785;DHT22;31489;51.404;5.474;2022-10-22T05:31:32;16.90;78.90
45785;DHT22;31489;51.404;5.474;2022-10-22T05:33:57;16.90;79.00
45785;DHT22;31489;51.404;5.474;2022-10-22T05:36:23;16.90;79.10
45785;DHT22;31489;51.404;5.474;2022-10-22T05:38:49;16.90;79.10
45785;DHT22;31489;51.404;5.474;2022-10-22T05:41:21;16.90;79.00
45785;DHT22;31489;51.404;5.474;2022-10-22T05:43:47;16.90;79.20
45785;DHT22;31489;51.404;5.474;2022-10-22T05:46:16;17.00;78.90
45785;DHT22;31489;51.404;5.474;2022-10-22T05:48:41;16.90;78.70
45785;DHT22;31489;51.404;5.474;2022-10-22T05:51:11;17.00;78.70
45785;DHT22;31489;51.404;5.474;2022-10-22T05:53:40;17.00;78.70
45785;DHT22;31489;51.404;5.474;2022-10-22T05:56:10;17.00;78.80
45785;DHT22;31489;51.404;5.474;2022-10-22T05:58:36;16.90;78.80
45785;DHT22;31489;51.404;5.474;2022-10-22T06:01:04;17.00;78.70
45785;DHT22;31489;51.404;5.474;2022-10-22T06:03:30;17.00;78.70
45785;DHT22;31489;51.404;5.474;2022-10-22T06:05:59;17.00;78.60
45785;DHT22;31489;51.404;5.474;2022-10-22T06:08:26;17.00;78.70
45785;DHT22;31489;51.404;5.474;2022-10-22T06:10:52;17.00;78.70
45785;DHT22;31489;51.404;5.474;2022-10-22T06:13:18;16.90;78.50
45785;DHT22;31489;51.404;5.474;2022-10-22T06:15:44;17.00;78.60
45785;DHT22;31489;51.404;5.474;2022-10-22T06:18:09;16.90;78.60
45785;DHT22;31489;51.404;5.474;2022-10-22T06:20:35;16.90;78.70
45785;DHT22;31489;51.404;5.474;2022-10-22T06:23:01;16.90;78.60
45785;DHT22;31489;51.404;5.474;2022-10-22T06:25:26;16.90;78.70
45785;DHT22;31489;51.404;5.474;2022-10-22T06:27:52;16.90;78.60
45785;DHT22;31489;51.404;5.474;2022-10-22T06:30:17;16.90;78.60
45785;DHT22;31489;51.404;5.474;2022-10-22T06:32:43;16.90;78.60
45785;DHT22;31489;51.404;5.474;2022-10-22T06:35:09;16.90;78.60
45785;DHT22;31489;51.404;5.474;2022-10-22T06:37:34;16.90;78.60
45785;DHT22;31489;51.404;5.474;2022-10-22T06:40:00;16.90;78.70
45785;DHT22;31489;51.404;5.474;2022-10-22T06:42:27;16.90;78.80
45785;DHT22;31489;51.404;5.474;2022-10-22T06:44:52;17.00;78.90
45785;DHT22;31489;51.404;5.474;2022-10-22T06:47:18;17.00;78.90
45785;DHT22;31489;51.404;5.474;2022-10-22T06:49:44;17.00;78.80
45785;DHT22;31489;51.404;5.474;2022-10-22T06:52:09;17.10;78.90
45785;DHT22;31489;51.404;5.474;2022-10-22T06:54:35;17.00;78.70
45785;DHT22;31489;51.404;5.474;2022-10-22T06:57:01;17.10;78.80
45785;DHT22;31489;51.404;5.474;2022-10-22T06:59:26;17.10;78.80
45785;DHT22;31489;51.404;5.474;2022-10-22T07:01:52;17.10;78.80
45785;DHT22;31489;51.404;5.474;2022-10-22T07:04:17;17.10;78.70
45785;DHT22;31489;51.404;5.474;2022-10-22T07:06:43;17.10;78.60
45785;DHT22;31489;51.404;5.474;2022-10-22T07:09:09;17.20;78.50
45785;DHT22;31489;51.404;5.474;2022-10-22T07:11:43;17.20;78.60
45785;DHT22;31489;51.404;5.474;2022-10-22T07:14:10;17.20;78.60
45785;DHT22;31489;51.404;5.474;2022-10-22T07:16:35;17.30;78.50
45785;DHT22;31489;51.404;5.474;2022-10-22T07:19:03;17.30;78.60
45785;DHT22;31489;51.404;5.474;2022-10-22T07:21:29;17.30;78.60
45785;DHT22;31489;51.404;5.474;2022-10-22T07:23:54;17.30;78.50
45785;DHT22;31489;51.404;5.474;2022-10-22T07:26:21;17.40;78.50
45785;DHT22;31489;51.404;5.474;2022-10-22T07:28:47;17.40;78.60
45785;DHT22;31489;51.404;5.474;2022-10-22T07:31:14;17.40;78.50
45785;DHT22;31489;51.404;5.474;2022-10-22T07:33:44;17.40;78.50
45785;DHT22;31489;51.404;5.474;2022-10-22T07:36:12;17.50;78.50
45785;DHT22;31489;51.404;5.474;2022-10-22T07:38:42;17.50;78.40
45785;DHT22;31489;51.404;5.474;2022-10-22T07:41:09;17.60;78.30
45785;DHT22;31489;51.404;5.474;2022-10-22T07:43:35;17.60;78.30
45785;DHT22;31489;51.404;5.474;2022-10-22T07:46:00;17.60;78.30
45785;DHT22;31489;51.404;5.474;2022-10-22T07:48:27;17.60;78.20
45785;DHT22;31489;51.404;5.474;2022-10-22T07:50:53;17.70;78.10
45785;DHT22;31489;51.404;5.474;2022-10-22T07:53:19;17.70;77.90
45785;DHT22;31489;51.404;5.474;2022-10-22T07:55:49;17.70;77.80
45785;DHT22;31489;51.404;5.474;2022-10-22T07:58:16;17.70;77.90
45785;DHT22;31489;51.404;5.474;2022-10-22T08:00:42;17.70;77.80
45785;DHT22;31489;51.404;5.474;2022-10-22T08:03:10;17.80;77.80
45785;DHT22;31489;51.404;5.474;2022-10-22T08:05:36;17.80;77.70
45785;DHT22;31489;51.404;5.474;2022-10-22T08:08:04;17.80;77.60
45785;DHT22;31489;51.404;5.474;2022-10-22T08:10:30;17.90;77.50
45785;DHT22;31489;51.404;5.474;2022-10-22T08:12:56;17.90;77.50
45785;DHT22;31489;51.404;5.474;2022-10-22T08:15:22;17.90;77.50
45785;DHT22;31489;51.404;5.474;2022-10-22T08:17:50;17.90;77.50
45785;DHT22;31489;51.404;5.474;2022-10-22T08:20:15;17.90;77.50
45785;DHT22;31489;51.404;5.474;2022-10-22T08:22:41;18.00;77.60
45785;DHT22;31489;51.404;5.474;2022-10-22T08:25:07;18.00;77.50
45785;DHT22;31489;51.404;5.474;2022-10-22T08:27:32;18.00;77.60
45785;DHT22;31489;51.404;5.474;2022-10-22T08:29:58;18.00;77.50
45785;DHT22;31489;51.404;5.474;2022-10-22T08:32:24;18.10;77.70
45785;DHT22;31489;51.404;5.474;2022-10-22T08:34:49;18.10;77.40
45785;DHT22;31489;51.404;5.474;2022-10-22T08:37:15;18.20;77.50
45785;DHT22;31489;51.404;5.474;2022-10-22T08:39:42;18.20;77.20
45785;DHT22;31489;51.404;5.474;2022-10-22T08:45:23;18.30;77.20
45785;DHT22;31489;51.404;5.474;2022-10-22T08:50:39;18.40;76.70
45785;DHT22;31489;51.404;5.474;2022-10-22T08:53:17;18.50;76.90
45785;DHT22;31489;51.404;5.474;2022-10-22T08:55:44;18.50;76.40
45785;DHT22;31489;51.404;5.474;2022-10-22T08:58:28;18.50;76.30
45785;DHT22;31489;51.404;5.474;2022-10-22T09:01:16;18.60;76.00
45785;DHT22;31489;51.404;5.474;2022-10-22T09:06:21;18.70;75.90
45785;DHT22;31489;51.404;5.474;2022-10-22T09:08:49;18.80;75.80
45785;DHT22;31489;51.404;5.474;2022-10-22T09:11:37;18.80;75.70
45785;DHT22;31489;51.404;5.474;2022-10-22T09:14:04;18.90;75.60
45785;DHT22;31489;51.404;5.474;2022-10-22T09:16:40;18.90;75.60
45785;DHT22;31489;51.404;5.474;2022-10-22T09:27:15;19.10;74.70
45785;DHT22;31489;51.404;5.474;2022-10-22T09:29:41;19.10;74.80
45785;DHT22;31489;51.404;5.474;2022-10-22T09:32:07;19.20;74.90
45785;DHT22;31489;51.404;5.474;2022-10-22T09:34:32;19.20;74.70
45785;DHT22;31489;51.404;5.474;2022-10-22T09:37:00;19.20;75.30
45785;DHT22;31489;51.404;5.474;2022-10-22T09:39:52;19.20;74.30
45785;DHT22;31489;51.404;5.474;2022-10-22T09:42:19;19.30;74.30
45785;DHT22;31489;51.404;5.474;2022-10-22T09:44:57;19.30;74.30
45785;DHT22;31489;51.404;5.474;2022-10-22T09:47:36;19.40;73.90
45785;DHT22;31489;51.404;5.474;2022-10-22T09:50:28;19.40;73.80
45785;DHT22;31489;51.404;5.474;2022-10-22T09:53:00;19.50;73.60
45785;DHT22;31489;51.404;5.474;2022-10-22T09:55:28;19.50;73.70
45785;DHT22;31489;51.404;5.474;2022-10-22T09:57:57;19.50;73.80
45785;DHT22;31489;51.404;5.474;2022-10-22T10:00:24;19.50;73.50
45785;DHT22;31489;51.404;5.474;2022-10-22T10:02:55;19.50;73.40
45785;DHT22;31489;51.404;5.474;2022-10-22T10:05:31;19.60;72.90
45785;DHT22;31489;51.404;5.474;2022-10-22T10:07:57;19.60;72.90
45785;DHT22;31489;51.404;5.474;2022-10-22T10:15:48;19.80;72.60
45785;DHT22;31489;51.404;5.474;2022-10-22T10:18:28;19.80;72.40
45785;DHT22;31489;51.404;5.474;2022-10-22T10:29:46;19.90;72.40
45785;DHT22;31489;51.404;5.474;2022-10-22T10:35:23;19.90;72.10
45785;DHT22;31489;51.404;5.474;2022-10-22T10:46:47;19.80;71.70
45785;DHT22;31489;51.404;5.474;2022-10-22T10:49:21;19.80;72.00
45785;DHT22;31489;51.404;5.474;2022-10-22T10:54:42;19.80;71.80
45785;DHT22;31489;51.404;5.474;2022-10-22T11:00:13;19.90;71.30
45785;DHT22;31489;51.404;5.474;2022-10-22T11:05:49;20.00;71.80
45785;DHT22;31489;51.404;5.474;2022-10-22T11:08:21;20.20;72.60
45785;DHT22;31489;51.404;5.474;2022-10-22T11:10:55;20.40;73.00
45785;DHT22;31489;51.404;5.474;2022-10-22T11:13:40;20.70;73.10
45785;DHT22;31489;51.404;5.474;2022-10-22T11:16:22;21.10;72.80
45785;DHT22;31489;51.404;5.474;2022-10-22T11:19:12;21.60;70.70
45785;DHT22;31489;51.404;5.474;2022-10-22T11:21:54;21.90;70.00
45785;DHT22;31489;51.404;5.474;2022-10-22T11:24:29;22.20;68.00
45785;DHT22;31489;51.404;5.474;2022-10-22T11:30:13;22.30;66.50
45785;DHT22;31489;51.404;5.474;2022-10-22T11:32:41;22.30;66.20
45785;DHT22;31489;51.404;5.474;2022-10-22T11:35:13;22.20;65.90
45785;DHT22;31489;51.404;5.474;2022-10-22T11:37:41;22.20;65.90
45785;DHT22;31489;51.404;5.474;2022-10-22T11:40:20;22.10;66.00
45785;DHT22;31489;51.404;5.474;2022-10-22T11:50:48;22.10;66.30
45785;DHT22;31489;51.404;5.474;2022-10-22T11:55:55;22.50;65.90
45785;DHT22;31489;51.404;5.474;2022-10-22T12:01:38;23.00;64.60
45785;DHT22;31489;51.404;5.474;2022-10-22T12:06:27;23.30;64.30
45785;DHT22;31489;51.404;5.474;2022-10-22T12:16:45;23.20;62.00
45785;DHT22;31489;51.404;5.474;2022-10-22T12:19:15;23.10;61.50
45785;DHT22;31489;51.404;5.474;2022-10-22T12:21:45;22.90;62.30
45785;DHT22;31489;51.404;5.474;2022-10-22T12:24:16;22.80;62.20
45785;DHT22;31489;51.404;5.474;2022-10-22T12:26:42;22.70;62.40
45785;DHT22;31489;51.404;5.474;2022-10-22T12:29:12;22.60;62.50
45785;DHT22;31489;51.404;5.474;2022-10-22T12:31:40;22.50;62.60
45785;DHT22;31489;51.404;5.474;2022-10-22T12:34:06;22.40;62.80
45785;DHT22;31489;51.404;5.474;2022-10-22T12:36:35;22.30;63.40
45785;DHT22;31489;51.404;5.474;2022-10-22T12:39:03;22.20;63.40
45785;DHT22;31489;51.404;5.474;2022-10-22T12:41:35;22.20;63.60
45785;DHT22;31489;51.404;5.474;2022-10-22T12:44:03;22.20;63.70
45785;DHT22;31489;51.404;5.474;2022-10-22T12:46:31;22.20;64.40
45785;DHT22;31489;51.404;5.474;2022-10-22T12:49:18;22.30;64.10
45785;DHT22;31489;51.404;5.474;2022-10-22T12:51:45;22.40;63.40
45785;DHT22;31489;51.404;5.474;2022-10-22T12:54:26;22.40;63.40
45785;DHT22;31489;51.404;5.474;2022-10-22T12:56:53;22.50;62.80
45785;DHT22;31489;51.404;5.474;2022-10-22T12:59:23;22.50;64.00
45785;DHT22;31489;51.404;5.474;2022-10-22T13:01:50;22.50;63.10
45785;DHT22;31489;51.404;5.474;2022-10-22T13:04:30;22.50;63.30
45785;DHT22;31489;51.404;5.474;2022-10-22T13:07:16;22.50;63.30
45785;DHT22;31489;51.404;5.474;2022-10-22T13:09:56;22.60;63.70
45785;DHT22;31489;51.404;5.474;2022-10-22T13:12:26;22.80;63.90
45785;DHT22;31489;51.404;5.474;2022-10-22T13:14:53;23.20;63.70
45785;DHT22;31489;51.404;5.474;2022-10-22T13:17:35;23.50;63.40
45785;DHT22;31489;51.404;5.474;2022-10-22T13:20:03;23.80;62.90
45785;DHT22;31489;51.404;5.474;2022-10-22T13:22:40;24.10;62.40
45785;DHT22;31489;51.404;5.474;2022-10-22T13:30:30;24.90;60.30
45785;DHT22;31489;51.404;5.474;2022-10-22T13:33:49;25.20;59.80
45785;DHT22;31489;51.404;5.474;2022-10-22T13:35:54;25.50;59.20
45785;DHT22;31489;51.404;5.474;2022-10-22T13:38:23;25.60;60.30
45785;DHT22;31489;51.404;5.474;2022-10-22T13:40:49;25.90;58.50
45785;DHT22;31489;51.404;5.474;2022-10-22T13:43:15;26.10;57.90
45785;DHT22;31489;51.404;5.474;2022-10-22T13:45:41;26.20;57.50
45785;DHT22;31489;51.404;5.474;2022-10-22T13:48:13;26.20;57.00
45785;DHT22;31489;51.404;5.474;2022-10-22T13:50:40;26.30;55.90
45785;DHT22;31489;51.404;5.474;2022-10-22T13:53:09;26.40;56.10
45785;DHT22;31489;51.404;5.474;2022-10-22T13:55:42;26.40;55.20
45785;DHT22;31489;51.404;5.474;2022-10-22T13:58:13;26.40;55.20
45785;DHT22;31489;51.404;5.474;2022-10-22T14:00:44;26.40;55.10
45785;DHT22;31489;51.404;5.474;2022-10-22T14:03:13;26.40;54.80
45785;DHT22;31489;51.404;5.474;2022-10-22T14:05:39;26.40;55.30
45785;DHT22;31489;51.404;5.474;2022-10-22T14:08:12;26.30;54.80
45785;DHT22;31489;51.404;5.474;2022-10-22T14:10:38;26.30;54.10
45785;DHT22;31489;51.404;5.474;2022-10-22T14:13:06;26.20;54.50
45785;DHT22;31489;51.404;5.474;2022-10-22T14:15:32;26.10;54.30
45785;DHT22;31489;51.404;5.474;2022-10-22T14:17:58;26.00;54.30
45785;DHT22;31489;51.404;5.474;2022-10-22T14:20:29;25.80;54.40
45785;DHT22;31489;51.404;5.474;2022-10-22T14:22:55;25.70;54.40
45785;DHT22;31489;51.404;5.474;2022-10-22T14:25:25;25.60;54.80
45785;DHT22;31489;51.404;5.474;2022-10-22T14:27:51;25.50;54.90
45785;DHT22;31489;51.404;5.474;2022-10-22T14:30:22;25.50;55.10
45785;DHT22;31489;51.404;5.474;2022-10-22T14:32:48;25.40;54.50
45785;DHT22;31489;51.404;5.474;2022-10-22T14:35:16;25.40;54.80
45785;DHT22;31489;51.404;5.474;2022-10-22T14:37:42;25.30;54.80
45785;DHT22;31489;51.404;5.474;2022-10-22T14:40:13;25.20;54.80
45785;DHT22;31489;51.404;5.474;2022-10-22T14:42:41;25.10;54.90
45785;DHT22;31489;51.404;5.474;2022-10-22T14:45:18;25.00;55.10
45785;DHT22;31489;51.404;5.474;2022-10-22T14:47:44;24.90;55.50
45785;DHT22;31489;51.404;5.474;2022-10-22T14:50:10;24.90;55.20
45785;DHT22;31489;51.404;5.474;2022-10-22T14:52:36;24.70;56.00
45785;DHT22;31489;51.404;5.474;2022-10-22T14:55:01;24.70;55.40
45785;DHT22;31489;51.404;5.474;2022-10-22T14:57:27;24.60;56.10
45785;DHT22;31489;51.404;5.474;2022-10-22T14:59:52;24.40;55.50
45785;DHT22;31489;51.404;5.474;2022-10-22T15:02:21;24.30;56.30
45785;DHT22;31489;51.404;5.474;2022-10-22T15:04:47;24.30;55.90
45785;DHT22;31489;51.404;5.474;2022-10-22T15:07:13;24.20;56.50
45785;DHT22;31489;51.404;5.474;2022-10-22T15:09:39;24.10;56.00
45785;DHT22;31489;51.404;5.474;2022-10-22T15:12:05;24.00;56.30
45785;DHT22;31489;51.404;5.474;2022-10-22T15:14:30;23.90;56.30
45785;DHT22;31489;51.404;5.474;2022-10-22T15:16:57;23.90;56.90
45785;DHT22;31489;51.404;5.474;2022-10-22T15:19:23;23.80;56.70
45785;DHT22;31489;51.404;5.474;2022-10-22T15:21:48;23.80;57.50
45785;DHT22;31489;51.404;5.474;2022-10-22T15:24:14;23.70;58.20
45785;DHT22;31489;51.404;5.474;2022-10-22T15:26:40;23.70;58.70
45785;DHT22;31489;51.404;5.474;2022-10-22T15:29:05;23.60;58.90
45785;DHT22;31489;51.404;5.474;2022-10-22T15:31:51;23.50;58.70
45785;DHT22;31489;51.404;5.474;2022-10-22T15:34:29;23.50;59.30
45785;DHT22;31489;51.404;5.474;2022-10-22T15:36:56;23.40;59.30
45785;DHT22;31489;51.404;5.474;2022-10-22T15:39:23;23.30;59.30
45785;DHT22;31489;51.404;5.474;2022-10-22T15:41:50;23.30;59.50
45785;DHT22;31489;51.404;5.474;2022-10-22T15:44:18;23.20;59.80
45785;DHT22;31489;51.404;5.474;2022-10-22T15:46:44;23.10;59.80
45785;DHT22;31489;51.404;5.474;2022-10-22T15:49:09;23.10;60.00
45785;DHT22;31489;51.404;5.474;2022-10-22T15:51:35;23.00;60.00
45785;DHT22;31489;51.404;5.474;2022-10-22T15:54:01;22.90;60.20
45785;DHT22;31489;51.404;5.474;2022-10-22T15:56:28;22.80;60.30
45785;DHT22;31489;51.404;5.474;2022-10-22T15:58:59;22.80;60.50
45785;DHT22;31489;51.404;5.474;2022-10-22T16:01:26;22.70;60.60
45785;DHT22;31489;51.404;5.474;2022-10-22T16:03:53;22.60;60.60
45785;DHT22;31489;51.404;5.474;2022-10-22T16:06:48;22.60;61.40
45785;DHT22;31489;51.404;5.474;2022-10-22T16:09:25;22.50;60.90
45785;DHT22;31489;51.404;5.474;2022-10-22T16:11:52;22.40;61.00
45785;DHT22;31489;51.404;5.474;2022-10-22T16:14:19;22.30;61.10
45785;DHT22;31489;51.404;5.474;2022-10-22T16:16:51;22.20;61.10
45785;DHT22;31489;51.404;5.474;2022-10-22T16:19:18;22.10;61.30
45785;DHT22;31489;51.404;5.474;2022-10-22T16:21:48;22.00;61.30
45785;DHT22;31489;51.404;5.474;2022-10-22T16:24:15;22.00;61.60
45785;DHT22;31489;51.404;5.474;2022-10-22T16:26:41;21.90;61.70
45785;DHT22;31489;51.404;5.474;2022-10-22T16:29:06;21.80;61.80
45785;DHT22;31489;51.404;5.474;2022-10-22T16:31:35;21.70;62.50
45785;DHT22;31489;51.404;5.474;2022-10-22T16:34:00;21.60;62.10
45785;DHT22;31489;51.404;5.474;2022-10-22T16:36:26;21.50;62.20
45785;DHT22;31489;51.404;5.474;2022-10-22T16:38:51;21.40;62.90
45785;DHT22;31489;51.404;5.474;2022-10-22T16:41:20;21.40;62.50
45785;DHT22;31489;51.404;5.474;2022-10-22T16:43:48;21.30;62.70
45785;DHT22;31489;51.404;5.474;2022-10-22T16:46:15;21.20;62.90
45785;DHT22;31489;51.404;5.474;2022-10-22T16:48:45;21.20;63.00
45785;DHT22;31489;51.404;5.474;2022-10-22T16:51:13;21.10;63.20
45785;DHT22;31489;51.404;5.474;2022-10-22T16:53:39;21.00;63.20
45785;DHT22;31489;51.404;5.474;2022-10-22T16:56:08;21.00;63.30
45785;DHT22;31489;51.404;5.474;2022-10-22T16:58:35;20.90;63.40
45785;DHT22;31489;51.404;5.474;2022-10-22T17:01:04;20.80;63.40
45785;DHT22;31489;51.404;5.474;2022-10-22T17:03:30;20.70;63.60
45785;DHT22;31489;51.404;5.474;2022-10-22T17:05:57;20.70;63.60
45785;DHT22;31489;51.404;5.474;2022-10-22T17:08:23;20.60;63.70
45785;DHT22;31489;51.404;5.474;2022-10-22T17:10:49;20.60;63.80
45785;DHT22;31489;51.404;5.474;2022-10-22T17:13:14;20.50;63.70
45785;DHT22;31489;51.404;5.474;2022-10-22T17:15:40;20.40;63.90
45785;DHT22;31489;51.404;5.474;2022-10-22T17:18:05;20.40;64.00
45785;DHT22;31489;51.404;5.474;2022-10-22T17:20:31;20.30;64.00
45785;DHT22;31489;51.404;5.474;2022-10-22T17:22:56;20.30;64.10
45785;DHT22;31489;51.404;5.474;2022-10-22T17:25:24;20.20;64.20
45785;DHT22;31489;51.404;5.474;2022-10-22T17:27:56;20.20;64.40
45785;DHT22;31489;51.404;5.474;2022-10-22T17:30:22;20.10;64.30